Time;durP1;ratioP1;P1;durP2;ratioP2;P2;SDS_P1;SDS_P2;PMS_P1;PMS_P2;Temp;Humidity;BMP_temperature;BMP_pressure;BME280_temperature;BME280_humidity;BME280_pressure;Samples;Min_cycle;Max_cycle;Signal;HPM_P1;HPM_P2
2023/05/15 00:00:10;;;;;;;14.48;10.65;;;13.20;99.90;;;;;;5084351;28;20127;-35
2023/05/15 00:02:37;;;;;;;14.63;11.68;;;13.30;99.90;;;;;;5065868;28;20039;-35
2023/05/15 00:05:03;;;;;;;10.93;9.82;;;13.30;99.90;;;;;;5084446;28;20097;-34
2023/05/15 00:07:29;;;;;;;13.68;9.73;;;13.30;99.90;;;;;;5084629;28;20063;-36
2023/05/15 00:09:55;;;;;;;12.07;9.95;;;13.30;99.90;;;;;;5083109;28;20432;-35
2023/05/15 00:12:20;;;;;;;12.93;11.05;;;13.30;99.90;;;;;;5083906;28;20035;-35
2023/05/15 00:14:46;;;;;;;14.15;10.15;;;13.40;99.90;;;;;;5084346;28;20030;-35
2023/05/15 00:17:12;;;;;;;9.60;8.60;;;13.40;99.90;;;;;;5083393;28;20020;-34
2023/05/15 00:19:38;;;;;;;10.43;9.32;;;13.40;99.90;;;;;;5083728;28;20047;-35
2023/05/15 00:22:03;;;;;;;9.15;8.23;;;13.40;99.90;;;;;;5084246;28;20023;-33
2023/05/15 00:24:29;;;;;;;10.30;9.23;;;13.40;99.90;;;;;;5082923;28;20036;-35
2023/05/15 00:26:54;;;;;;;10.90;9.55;;;13.30;99.90;;;;;;5084109;28;20016;-34
2023/05/15 00:29:20;;;;;;;12.63;9.32;;;13.30;99.90;;;;;;5083820;28;20165;-34
2023/05/15 00:31:45;;;;;;;11.95;9.80;;;13.20;99.90;;;;;;5083393;28;20030;-34
2023/05/15 00:34:11;;;;;;;12.50;9.85;;;13.20;99.90;;;;;;5084168;28;20039;-35
2023/05/15 00:36:36;;;;;;;10.90;9.30;;;13.20;99.90;;;;;;5083316;28;20048;-35
2023/05/15 00:39:02;;;;;;;13.57;10.50;;;13.20;99.90;;;;;;5083447;28;20074;-36
2023/05/15 00:41:31;;;;;;;14.85;11.88;;;13.20;99.90;;;;;;5083452;28;20032;-34
2023/05/15 00:43:59;;;;;;;11.43;10.23;;;13.10;99.90;;;;;;5084863;28;20024;-34
2023/05/15 00:46:27;;;;;;;12.68;11.38;;;13.10;99.90;;;;;;5083071;28;20082;-34
2023/05/15 00:48:54;;;;;;;13.20;11.02;;;13.10;99.90;;;;;;5084242;28;20104;-33
2023/05/15 00:51:20;;;;;;;14.23;11.50;;;13.00;99.90;;;;;;5083944;28;20078;-34
2023/05/15 00:53:46;;;;;;;13.73;11.13;;;13.00;99.90;;;;;;5082872;28;20591;-34
2023/05/15 00:56:12;;;;;;;13.85;11.75;;;13.00;99.90;;;;;;5083827;28;20794;-33
2023/05/15 00:58:38;;;;;;;11.27;10.18;;;13.00;99.90;;;;;;5083607;28;20752;-34
2023/05/15 01:01:04;;;;;;;12.75;10.25;;;13.00;99.90;;;;;;5082316;28;20366;-34
2023/05/15 01:03:33;;;;;;;11.30;10.13;;;13.00;99.90;;;;;;5083237;28;20016;-35
2023/05/15 01:05:59;;;;;;;14.50;11.90;;;13.00;99.90;;;;;;5083319;28;20439;-33
2023/05/15 01:08:31;;;;;;;15.50;12.00;;;12.90;99.90;;;;;;5082436;28;20035;-35
2023/05/15 01:10:58;;;;;;;14.87;12.50;;;12.80;99.90;;;;;;5083061;28;20020;-34
2023/05/15 01:13:23;;;;;;;17.70;14.00;;;12.80;99.90;;;;;;5081539;28;20056;-35
2023/05/15 01:15:49;;;;;;;14.18;11.80;;;12.70;99.90;;;;;;5083912;28;20119;-34
2023/05/15 01:18:15;;;;;;;12.35;10.38;;;12.60;99.90;;;;;;5082919;28;20020;-33
2023/05/15 01:21:00;;;;;;;13.75;10.98;;;12.60;99.90;;;;;;5082263;28;20032;-34
2023/05/15 01:23:40;;;;;;;17.33;11.93;;;12.50;99.90;;;;;;5082649;28;20028;-34
2023/05/15 01:26:06;;;;;;;15.10;12.20;;;12.50;99.90;;;;;;5084489;28;20032;-34
2023/05/15 01:28:38;;;;;;;10.50;9.40;;;12.40;99.90;;;;;;5082063;28;20547;-34
2023/05/15 01:31:13;;;;;;;15.70;12.15;;;12.40;99.90;;;;;;5083186;28;20099;-34
2023/05/15 01:33:44;;;;;;;16.23;13.50;;;12.40;99.90;;;;;;5081882;28;20570;-33
2023/05/15 01:36:17;;;;;;;13.73;12.20;;;12.40;99.90;;;;;;5081893;28;20028;-35
2023/05/15 01:38:56;;;;;;;14.07;11.88;;;12.30;99.90;;;;;;5081820;28;20059;-33
2023/05/15 01:41:31;;;;;;;13.85;11.18;;;12.30;99.90;;;;;;5061575;28;20028;-35
2023/05/15 01:44:05;;;;;;;15.80;12.90;;;12.30;99.90;;;;;;5079697;28;20475;-34
2023/05/15 01:46:35;;;;;;;16.85;12.93;;;12.20;99.90;;;;;;5082536;28;20127;-35
2023/05/15 01:49:02;;;;;;;13.48;11.27;;;12.20;99.90;;;;;;5081865;28;20406;-35
2023/05/15 01:51:29;;;;;;;12.27;10.63;;;12.20;99.90;;;;;;5081740;28;20483;-35
2023/05/15 01:53:57;;;;;;;11.63;10.43;;;12.20;99.90;;;;;;5082769;28;20044;-35
2023/05/15 01:56:25;;;;;;;15.27;11.80;;;12.20;99.90;;;;;;5081117;28;20140;-33
2023/05/15 01:58:52;;;;;;;12.32;11.02;;;12.20;99.90;;;;;;5082309;28;20104;-35
2023/05/15 02:01:18;;;;;;;14.13;11.85;;;12.20;99.90;;;;;;5083045;28;20035;-36
2023/05/15 02:03:45;;;;;;;13.23;11.27;;;12.20;99.90;;;;;;5081318;28;20024;-34
2023/05/15 02:06:12;;;;;;;12.75;10.75;;;12.20;99.90;;;;;;5082359;28;20153;-34
2023/05/15 02:08:39;;;;;;;11.90;10.05;;;12.10;99.90;;;;;;5082033;28;20020;-34
2023/05/15 02:11:05;;;;;;;14.57;11.57;;;12.10;99.90;;;;;;5081825;28;20779;-35
2023/05/15 02:13:32;;;;;;;12.82;10.65;;;12.10;99.90;;;;;;5082054;28;20012;-34
2023/05/15 02:15:58;;;;;;;14.07;11.65;;;12.10;99.90;;;;;;5081313;28;20032;-35
2023/05/15 02:18:24;;;;;;;12.02;10.55;;;12.20;99.90;;;;;;5080183;28;20055;-35
2023/05/15 02:20:50;;;;;;;13.07;10.80;;;12.10;99.90;;;;;;5081484;28;20035;-35
2023/05/15 02:23:19;;;;;;;14.10;11.23;;;12.10;99.90;;;;;;5081730;28;20103;-34
2023/05/15 02:26:00;;;;;;;14.95;11.60;;;12.10;99.90;;;;;;5080009;28;20562;-34
2023/05/15 02:28:35;;;;;;;11.63;9.73;;;12.20;99.90;;;;;;5081472;28;20028;-36
2023/05/15 02:31:16;;;;;;;12.00;10.55;;;12.20;99.90;;;;;;5081018;28;20020;-34
2023/05/15 02:33:56;;;;;;;12.82;10.90;;;12.10;99.90;;;;;;5081167;28;20020;-35
2023/05/15 02:36:28;;;;;;;11.50;9.98;;;12.10;99.90;;;;;;5078607;28;20031;-35
2023/05/15 02:38:55;;;;;;;12.68;10.55;;;12.10;99.90;;;;;;5080398;28;20150;-35
2023/05/15 02:41:21;;;;;;;12.32;10.15;;;12.10;99.90;;;;;;5081559;28;20023;-35
2023/05/15 02:43:50;;;;;;;13.50;11.15;;;12.10;99.90;;;;;;5080781;28;20029;-35
2023/05/15 02:46:17;;;;;;;12.13;10.10;;;12.10;99.90;;;;;;5081151;28;20110;-35
2023/05/15 02:48:43;;;;;;;12.85;10.10;;;12.10;99.90;;;;;;5081595;28;20031;-35
2023/05/15 02:51:09;;;;;;;12.00;9.43;;;12.10;99.90;;;;;;5081249;28;20028;-35
2023/05/15 02:53:42;;;;;;;14.98;11.38;;;12.10;99.90;;;;;;5080294;28;20050;-34
2023/05/15 02:56:08;;;;;;;15.27;12.50;;;12.10;99.90;;;;;;5081890;28;20463;-34
2023/05/15 02:58:34;;;;;;;15.25;11.98;;;12.10;99.90;;;;;;5080154;28;20905;-35
2023/05/15 03:01:00;;;;;;;16.27;13.70;;;12.00;99.90;;;;;;5081552;28;20068;-35
2023/05/15 03:03:26;;;;;;;17.25;13.95;;;12.00;99.90;;;;;;5081422;28;20035;-35
2023/05/15 03:05:51;;;;;;;14.38;10.80;;;11.90;99.90;;;;;;5081219;28;20008;-35
2023/05/15 03:08:18;;;;;;;17.48;12.82;;;11.90;99.90;;;;;;5081795;28;20431;-35
2023/05/15 03:10:43;;;;;;;15.35;12.32;;;11.80;99.90;;;;;;5081951;28;20048;-36
2023/05/15 03:13:09;;;;;;;14.27;11.60;;;11.80;99.90;;;;;;5080742;28;20140;-35
2023/05/15 03:15:35;;;;;;;13.23;10.60;;;11.80;99.90;;;;;;5080605;28;20048;-35
2023/05/15 03:18:00;;;;;;;20.33;14.73;;;11.80;99.90;;;;;;5081595;28;20081;-34
2023/05/15 03:20:26;;;;;;;18.23;14.93;;;11.80;99.90;;;;;;5080542;28;20055;-35
2023/05/15 03:22:51;;;;;;;18.50;14.93;;;11.80;99.90;;;;;;5080899;28;20008;-35
2023/05/15 03:25:17;;;;;;;22.17;14.02;;;11.70;99.90;;;;;;5080557;28;20107;-36
2023/05/15 03:27:43;;;;;;;23.17;12.35;;;11.80;99.90;;;;;;5079074;28;20035;-36
2023/05/15 03:30:09;;;;;;;15.27;12.80;;;11.80;99.90;;;;;;5079792;28;20032;-35
2023/05/15 03:32:37;;;;;;;25.55;15.85;;;11.80;99.90;;;;;;5079610;28;20056;-35
2023/05/15 03:35:03;;;;;;;20.02;15.75;;;11.80;99.90;;;;;;5079902;28;20396;-35
2023/05/15 03:37:29;;;;;;;18.85;14.73;;;11.70;99.90;;;;;;5079935;28;20028;-36
2023/05/15 03:39:54;;;;;;;17.65;14.48;;;11.70;99.90;;;;;;5080390;28;20050;-34
2023/05/15 03:42:22;;;;;;;19.92;15.43;;;11.80;99.90;;;;;;5080576;28;20032;-34
2023/05/15 03:44:48;;;;;;;17.42;13.95;;;11.80;99.90;;;;;;5081516;28;20557;-35
2023/05/15 03:47:14;;;;;;;19.75;15.30;;;11.90;99.90;;;;;;5081263;28;20016;-36
2023/05/15 03:49:40;;;;;;;19.60;14.82;;;11.90;99.90;;;;;;5080375;28;20494;-35
2023/05/15 03:52:06;;;;;;;21.77;16.77;;;11.90;99.90;;;;;;5080959;28;20020;-35
2023/05/15 03:54:32;;;;;;;22.58;16.38;;;11.90;99.90;;;;;;5080519;28;20505;-35
2023/05/15 03:56:57;;;;;;;19.20;14.73;;;11.90;99.90;;;;;;5080177;28;21124;-34
2023/05/15 03:59:23;;;;;;;20.77;15.90;;;12.00;99.90;;;;;;5079732;28;20036;-34
2023/05/15 04:01:48;;;;;;;19.40;14.77;;;12.00;99.90;;;;;;5080157;28;20028;-34
2023/05/15 04:04:14;;;;;;;26.88;19.05;;;12.10;99.90;;;;;;5080878;28;20082;-34
2023/05/15 04:06:39;;;;;;;26.27;18.23;;;12.10;99.90;;;;;;5080472;28;20012;-35
2023/05/15 04:09:05;;;;;;;21.88;16.50;;;12.00;99.90;;;;;;5079513;28;20170;-34
2023/05/15 04:11:33;;;;;;;20.63;15.88;;;12.10;99.90;;;;;;5080700;28;20020;-34
2023/05/15 04:13:58;;;;;;;23.05;16.95;;;12.00;99.90;;;;;;5080645;28;20141;-33
2023/05/15 04:16:24;;;;;;;19.95;14.80;;;12.00;99.90;;;;;;5079202;28;20570;-33
2023/05/15 04:18:49;;;;;;;19.45;14.85;;;12.00;99.90;;;;;;5080231;28;20032;-34
2023/05/15 04:21:15;;;;;;;20.00;14.10;;;12.00;99.90;;;;;;5080865;28;20554;-33
2023/05/15 04:23:40;;;;;;;22.05;16.63;;;12.00;99.90;;;;;;5079536;28;20442;-33
2023/05/15 04:26:07;;;;;;;19.27;15.52;;;12.00;99.90;;;;;;5080676;28;20668;-35
2023/05/15 04:28:32;;;;;;;19.95;15.65;;;12.10;99.90;;;;;;5080352;28;20016;-34
2023/05/15 04:30:58;;;;;;;26.73;17.88;;;12.10;99.90;;;;;;5079630;28;20039;-34
2023/05/15 04:33:24;;;;;;;17.70;14.88;;;12.10;99.90;;;;;;5079164;28;20047;-35
2023/05/15 04:35:50;;;;;;;17.65;13.85;;;12.00;99.90;;;;;;5083016;28;20123;-34
2023/05/15 04:38:16;;;;;;;18.02;14.13;;;12.10;99.90;;;;;;5082714;28;20030;-33
2023/05/15 04:40:42;;;;;;;15.07;12.57;;;12.10;99.90;;;;;;5083197;28;20895;-35
2023/05/15 04:43:11;;;;;;;21.98;15.65;;;12.20;99.90;;;;;;5083516;28;20094;-34
2023/05/15 04:45:39;;;;;;;16.40;13.55;;;12.20;99.90;;;;;;5082267;28;20173;-34
2023/05/15 04:48:05;;;;;;;19.33;15.07;;;12.20;99.90;;;;;;5063982;28;20032;-34
2023/05/15 04:50:33;;;;;;;23.50;16.48;;;12.30;99.90;;;;;;5083141;28;20024;-35
2023/05/15 04:52:59;;;;;;;17.35;12.93;;;12.30;99.90;;;;;;5083247;28;20077;-34
2023/05/15 04:55:25;;;;;;;23.45;18.55;;;12.30;99.90;;;;;;5083565;28;20028;-34
2023/05/15 04:57:50;;;;;;;21.25;16.05;;;12.30;99.90;;;;;;5083981;28;20027;-34
2023/05/15 05:00:16;;;;;;;17.65;14.18;;;12.30;99.90;;;;;;5083447;28;20059;-34
2023/05/15 05:02:42;;;;;;;21.83;16.90;;;12.40;99.90;;;;;;5083862;28;20031;-34
2023/05/15 05:05:08;;;;;;;19.42;14.65;;;12.40;99.90;;;;;;5082647;28;20039;-33
2023/05/15 05:07:34;;;;;;;19.98;15.05;;;12.40;99.90;;;;;;5082641;28;20028;-34
2023/05/15 05:10:00;;;;;;;16.85;12.95;;;12.40;99.90;;;;;;5083278;28;20089;-34
2023/05/15 05:12:26;;;;;;;22.67;17.25;;;12.40;99.90;;;;;;5082011;28;20026;-34
2023/05/15 05:14:52;;;;;;;15.85;13.80;;;12.50;99.90;;;;;;5082788;28;20026;-34
2023/05/15 05:17:17;;;;;;;18.83;15.38;;;12.40;99.90;;;;;;5082267;28;20126;-34
2023/05/15 05:19:43;;;;;;;19.50;14.23;;;12.40;99.90;;;;;;5082461;28;20821;-34
2023/05/15 05:22:11;;;;;;;18.02;13.90;;;12.40;99.90;;;;;;5083305;28;20496;-35
2023/05/15 05:24:37;;;;;;;20.38;15.43;;;12.40;99.90;;;;;;5083162;28;20028;-33
2023/05/15 05:27:03;;;;;;;20.70;17.08;;;12.40;99.90;;;;;;5083436;28;20016;-33
2023/05/15 05:29:29;;;;;;;21.80;15.60;;;12.40;99.90;;;;;;5082694;28;20327;-36
2023/05/15 05:31:55;;;;;;;24.50;18.10;;;12.40;99.90;;;;;;5083451;28;20020;-33
2023/05/15 05:34:21;;;;;;;19.08;15.70;;;12.40;99.90;;;;;;5081832;28;20020;-35
2023/05/15 05:36:47;;;;;;;19.30;15.75;;;12.30;99.90;;;;;;5081656;28;20036;-34
2023/05/15 05:39:15;;;;;;;18.25;14.85;;;12.30;99.90;;;;;;5083418;28;20020;-35
2023/05/15 05:41:41;;;;;;;17.85;13.25;;;12.30;99.90;;;;;;5081860;28;20063;-33
2023/05/15 05:44:06;;;;;;;19.58;15.27;;;12.30;99.90;;;;;;5082232;28;20406;-33
2023/05/15 05:46:32;;;;;;;19.98;15.25;;;12.40;99.90;;;;;;5080246;28;20028;-35
2023/05/15 05:49:00;;;;;;;15.52;13.88;;;12.40;99.90;;;;;;5081560;28;20051;-35
2023/05/15 05:51:26;;;;;;;13.27;11.70;;;12.40;99.90;;;;;;5080837;28;20042;-34
2023/05/15 05:53:51;;;;;;;15.27;12.18;;;12.50;99.90;;;;;;5079083;28;20048;-35
2023/05/15 05:56:17;;;;;;;14.02;11.98;;;12.60;99.90;;;;;;5080788;28;20035;-35
2023/05/15 05:58:43;;;;;;;15.40;12.50;;;12.60;99.90;;;;;;5080936;28;20038;-35
2023/05/15 06:01:08;;;;;;;15.65;13.75;;;12.70;99.90;;;;;;5081195;28;20047;-34
2023/05/15 06:03:36;;;;;;;14.35;12.40;;;12.70;99.90;;;;;;5069278;28;20480;-35
2023/05/15 06:06:02;;;;;;;17.55;14.20;;;12.70;99.90;;;;;;5081848;28;20126;-33
2023/05/15 06:08:28;;;;;;;19.67;15.13;;;12.70;99.90;;;;;;5080566;28;20111;-35
2023/05/15 06:10:53;;;;;;;17.80;14.18;;;12.70;99.90;;;;;;5082188;28;20024;-34
2023/05/15 06:13:19;;;;;;;18.80;15.90;;;12.60;99.90;;;;;;5080338;28;20069;-36
2023/05/15 06:15:46;;;;;;;17.17;14.15;;;12.60;99.90;;;;;;5080653;28;21019;-33
2023/05/15 06:18:11;;;;;;;18.02;14.45;;;12.60;99.90;;;;;;5081239;28;20021;-34
2023/05/15 06:20:37;;;;;;;15.15;13.15;;;12.60;99.90;;;;;;5081230;28;20035;-34
2023/05/15 06:23:03;;;;;;;19.50;14.90;;;12.70;99.90;;;;;;5081110;28;20043;-35
2023/05/15 06:25:31;;;;;;;19.10;14.85;;;12.70;99.90;;;;;;5081122;28;20038;-35
2023/05/15 06:27:57;;;;;;;14.05;12.60;;;12.70;99.90;;;;;;5081543;28;20724;-35
2023/05/15 06:30:24;;;;;;;15.80;13.00;;;12.70;99.90;;;;;;5080717;28;20032;-36
2023/05/15 06:32:49;;;;;;;15.80;13.57;;;12.70;99.90;;;;;;5080826;28;20131;-35
2023/05/15 06:35:15;;;;;;;17.00;12.80;;;12.60;99.90;;;;;;5081731;28;20034;-34
2023/05/15 06:37:41;;;;;;;18.33;14.40;;;12.60;99.90;;;;;;5079488;28;20520;-35
2023/05/15 06:40:07;;;;;;;20.92;16.05;;;12.60;99.90;;;;;;5080682;28;20034;-35
2023/05/15 06:42:33;;;;;;;17.52;14.80;;;12.60;99.90;;;;;;5080732;28;20020;-35
2023/05/15 06:44:58;;;;;;;17.50;13.60;;;12.60;99.90;;;;;;5081319;28;20043;-34
2023/05/15 06:47:24;;;;;;;12.57;11.27;;;12.60;99.90;;;;;;5080882;28;20484;-34
2023/05/15 06:49:50;;;;;;;15.20;12.93;;;12.70;99.90;;;;;;5081432;28;20027;-36
2023/05/15 06:52:15;;;;;;;14.75;11.98;;;12.80;99.90;;;;;;5079342;28;20031;-35
2023/05/15 06:54:42;;;;;;;16.05;12.38;;;12.90;99.90;;;;;;5079120;28;20092;-34
2023/05/15 06:57:07;;;;;;;14.60;13.00;;;12.90;99.90;;;;;;5080903;28;20039;-35
2023/05/15 06:59:34;;;;;;;11.85;10.63;;;12.90;99.90;;;;;;5078874;28;20036;-34
2023/05/15 07:02:01;;;;;;;13.35;11.15;;;13.00;99.90;;;;;;5081041;28;20102;-35
2023/05/15 07:04:26;;;;;;;13.02;11.23;;;13.10;99.90;;;;;;5080760;28;20020;-34
2023/05/15 07:06:52;;;;;;;12.70;10.65;;;13.10;99.90;;;;;;5079740;28;20085;-35
2023/05/15 07:09:17;;;;;;;13.40;9.85;;;13.10;99.90;;;;;;5081024;28;20027;-33
2023/05/15 07:11:43;;;;;;;13.32;11.90;;;13.20;99.90;;;;;;5080461;28;20593;-36
2023/05/15 07:14:08;;;;;;;14.88;12.45;;;13.30;99.90;;;;;;5081032;28;20085;-35
2023/05/15 07:16:34;;;;;;;12.00;10.65;;;13.30;99.90;;;;;;5080303;28;20028;-35
2023/05/15 07:19:00;;;;;;;12.35;11.10;;;13.30;99.90;;;;;;5080173;28;20836;-34
2023/05/15 07:21:25;;;;;;;10.60;9.20;;;13.40;99.90;;;;;;5080495;28;20038;-35
2023/05/15 07:23:51;;;;;;;12.85;11.55;;;13.40;99.90;;;;;;5081336;28;20016;-36
2023/05/15 07:26:16;;;;;;;11.63;10.43;;;13.50;99.90;;;;;;5079172;28;20628;-35
2023/05/15 07:28:42;;;;;;;13.10;11.57;;;13.50;99.90;;;;;;5079718;28;20051;-35
2023/05/15 07:31:07;;;;;;;12.57;10.15;;;13.60;99.90;;;;;;5079844;28;20027;-34
2023/05/15 07:33:33;;;;;;;10.98;9.63;;;13.60;99.90;;;;;;5080647;28;20277;-35
2023/05/15 07:35:58;;;;;;;11.20;9.88;;;13.70;99.90;;;;;;5079848;28;20541;-35
2023/05/15 07:38:24;;;;;;;11.02;8.98;;;13.80;99.90;;;;;;5080253;28;20127;-35
2023/05/15 07:40:50;;;;;;;10.70;9.60;;;13.90;99.90;;;;;;5080404;28;20114;-35
2023/05/15 07:43:16;;;;;;;11.63;10.07;;;14.00;99.90;;;;;;5080918;28;20106;-35
2023/05/15 07:45:41;;;;;;;11.25;9.65;;;14.10;99.90;;;;;;5080231;28;20043;-35
2023/05/15 07:48:14;;;;;;;10.05;9.05;;;14.10;99.90;;;;;;5080421;28;20016;-35
2023/05/15 07:50:40;;;;;;;8.75;7.85;;;14.20;99.90;;;;;;5080158;28;20087;-34
2023/05/15 07:53:06;;;;;;;7.90;7.20;;;14.20;99.90;;;;;;5080728;28;20556;-35
2023/05/15 07:55:31;;;;;;;8.10;7.30;;;14.30;99.90;;;;;;5079973;28;20837;-35
2023/05/15 07:57:57;;;;;;;9.18;8.27;;;14.40;99.90;;;;;;5080897;28;20380;-37
2023/05/15 08:00:22;;;;;;;8.25;7.45;;;14.40;99.90;;;;;;5079366;28;20758;-34
2023/05/15 08:02:48;;;;;;;7.57;6.88;;;14.50;99.90;;;;;;5078364;28;20475;-35
2023/05/15 08:05:13;;;;;;;8.40;7.53;;;14.50;99.90;;;;;;5079338;28;20020;-35
2023/05/15 08:07:42;;;;;;;8.90;8.00;;;14.60;99.90;;;;;;5078886;28;20492;-35
2023/05/15 08:10:08;;;;;;;9.02;7.40;;;14.60;99.90;;;;;;5079150;28;20102;-35
2023/05/15 08:12:33;;;;;;;7.57;6.88;;;14.70;99.90;;;;;;5084684;28;20079;-35
2023/05/15 08:14:59;;;;;;;7.65;6.85;;;14.80;99.90;;;;;;5083476;28;20035;-35
2023/05/15 08:17:25;;;;;;;10.23;7.75;;;14.80;99.90;;;;;;5082820;28;20064;-36
2023/05/15 08:19:51;;;;;;;8.25;7.45;;;14.90;99.90;;;;;;5082504;28;20028;-35
2023/05/15 08:22:16;;;;;;;8.25;7.40;;;15.00;99.90;;;;;;5082988;28;20024;-35
2023/05/15 08:24:42;;;;;;;7.93;7.10;;;15.00;99.90;;;;;;5083063;28;20029;-34
2023/05/15 08:27:10;;;;;;;8.18;6.97;;;15.10;99.90;;;;;;5083275;28;20626;-34
2023/05/15 08:29:36;;;;;;;8.88;7.85;;;15.10;99.90;;;;;;5082883;28;20037;-35
2023/05/15 08:32:02;;;;;;;9.38;8.43;;;15.10;99.90;;;;;;5083975;28;20012;-35
2023/05/15 08:34:28;;;;;;;10.13;8.80;;;15.20;99.90;;;;;;5083529;28;20035;-35
2023/05/15 08:36:55;;;;;;;10.20;9.10;;;15.20;99.90;;;;;;5083510;28;20476;-34
2023/05/15 08:39:21;;;;;;;10.88;9.32;;;15.30;99.90;;;;;;5083647;28;20051;-34
2023/05/15 08:42:08;;;;;;;11.40;10.20;;;15.40;99.90;;;;;;5082135;28;20031;-34
2023/05/15 08:44:35;;;;;;;12.45;10.80;;;15.50;99.90;;;;;;5081956;28;20493;-34
2023/05/15 08:47:01;;;;;;;15.68;10.55;;;15.60;99.90;;;;;;5083334;28;20059;-34
2023/05/15 08:49:35;;;;;;;10.75;9.18;;;15.70;99.90;;;;;;5083441;28;20480;-35
2023/05/15 08:52:00;;;;;;;9.25;8.15;;;15.70;99.90;;;;;;5083977;28;20032;-35
2023/05/15 08:54:27;;;;;;;11.73;9.60;;;15.70;99.90;;;;;;5083346;28;20066;-35
2023/05/15 08:56:52;;;;;;;9.75;8.73;;;15.80;99.90;;;;;;5083750;28;20461;-34
2023/05/15 08:59:18;;;;;;;13.23;10.48;;;15.90;99.90;;;;;;5083004;28;20038;-34
2023/05/15 09:01:44;;;;;;;10.35;9.25;;;16.00;99.90;;;;;;5082866;28;20028;-36
2023/05/15 09:04:09;;;;;;;10.60;8.52;;;16.00;99.90;;;;;;5083708;28;20062;-34
2023/05/15 09:06:36;;;;;;;8.18;7.28;;;16.10;99.90;;;;;;5082308;28;20486;-35
2023/05/15 09:09:04;;;;;;;6.97;6.22;;;16.10;99.90;;;;;;5083083;28;20123;-35
2023/05/15 09:11:31;;;;;;;7.03;6.43;;;16.20;99.90;;;;;;5080666;28;20436;-35
2023/05/15 09:14:00;;;;;;;8.30;7.43;;;16.20;99.90;;;;;;5082439;28;20077;-34
2023/05/15 09:16:26;;;;;;;7.63;6.93;;;16.20;99.90;;;;;;5082186;28;20032;-35
2023/05/15 09:18:52;;;;;;;8.23;7.45;;;16.30;99.90;;;;;;5082269;28;20118;-37
2023/05/15 09:21:25;;;;;;;8.38;6.82;;;16.40;99.90;;;;;;5081704;28;20035;-35
2023/05/15 09:23:52;;;;;;;8.45;7.65;;;16.60;99.90;;;;;;5082269;28;20012;-35
2023/05/15 09:26:17;;;;;;;9.60;7.25;;;16.70;99.90;;;;;;5081683;28;20028;-36
2023/05/15 09:28:43;;;;;;;8.20;7.43;;;16.90;99.90;;;;;;5082855;28;20016;-35
2023/05/15 09:31:09;;;;;;;8.18;7.47;;;17.00;99.90;;;;;;5082274;28;20032;-35
2023/05/15 09:33:39;;;;;;;10.65;8.30;;;17.10;99.90;;;;;;5081380;28;20467;-34
2023/05/15 09:36:08;;;;;;;7.95;7.15;;;17.10;99.90;;;;;;5082554;28;20040;-35
2023/05/15 09:38:47;;;;;;;9.93;9.02;;;17.20;99.90;;;;;;5081199;28;20383;-35
2023/05/15 09:41:12;;;;;;;10.48;9.40;;;17.30;99.90;;;;;;5081494;28;20064;-35
2023/05/15 09:43:40;;;;;;;11.10;10.07;;;17.30;99.90;;;;;;5081890;28;20792;-35
2023/05/15 09:46:07;;;;;;;10.13;9.02;;;17.40;99.90;;;;;;5082706;28;20020;-34
2023/05/15 09:48:33;;;;;;;10.35;9.35;;;17.50;99.90;;;;;;5081057;28;20032;-34
2023/05/15 09:51:01;;;;;;;11.38;10.10;;;17.60;99.90;;;;;;5082265;28;20089;-36
2023/05/15 09:53:27;;;;;;;10.52;9.05;;;17.60;99.90;;;;;;5080662;28;20048;-36
2023/05/15 09:55:53;;;;;;;9.38;8.38;;;17.70;99.90;;;;;;5082532;28;20020;-34
2023/05/15 09:58:19;;;;;;;9.43;8.50;;;17.80;99.90;;;;;;5082740;28;20143;-35
2023/05/15 10:00:46;;;;;;;9.50;8.32;;;17.80;99.90;;;;;;5081646;28;20036;-34
2023/05/15 10:03:14;;;;;;;8.88;8.07;;;17.80;99.90;;;;;;5081712;28;20367;-34
2023/05/15 10:05:39;;;;;;;7.90;7.15;;;17.80;99.90;;;;;;5081589;28;20123;-34
2023/05/15 10:08:05;;;;;;;8.15;7.38;;;17.90;99.90;;;;;;5082209;28;20020;-36
2023/05/15 10:10:31;;;;;;;8.90;8.05;;;18.00;99.90;;;;;;5081560;28;20089;-36
2023/05/15 10:13:00;;;;;;;9.55;8.55;;;18.10;99.90;;;;;;5082226;28;20028;-34
2023/05/15 10:15:27;;;;;;;9.30;8.40;;;18.10;99.90;;;;;;5081082;28;20032;-34
2023/05/15 10:17:53;;;;;;;8.48;7.75;;;18.10;99.90;;;;;;5081279;28;20031;-34
2023/05/15 10:20:22;;;;;;;7.68;6.97;;;18.00;99.90;;;;;;5080324;28;20040;-34
2023/05/15 10:22:56;;;;;;;9.98;8.93;;;17.90;99.90;;;;;;5080364;28;20416;-34
2023/05/15 10:25:41;;;;;;;8.45;7.55;;;17.90;99.90;;;;;;5080733;28;20030;-35
2023/05/15 10:28:12;;;;;;;8.10;7.40;;;17.90;99.90;;;;;;5081410;28;20035;-35
2023/05/15 10:30:38;;;;;;;7.60;6.90;;;18.10;99.90;;;;;;5070040;28;20031;-33
2023/05/15 10:33:05;;;;;;;15.52;10.32;;;18.20;99.90;;;;;;5080927;28;20020;-33
2023/05/15 10:35:37;;;;;;;14.32;12.30;;;18.30;99.90;;;;;;5081199;28;20024;-34
2023/05/15 10:38:05;;;;;;;12.02;10.70;;;18.40;99.90;;;;;;5081400;28;20020;-34
2023/05/15 10:40:37;;;;;;;11.30;9.35;;;18.30;99.90;;;;;;5080314;28;20036;-34
2023/05/15 10:43:04;;;;;;;8.93;6.90;;;18.40;99.90;;;;;;5081304;28;20035;-35
2023/05/15 10:45:31;;;;;;;8.10;7.07;;;18.40;99.90;;;;;;5079960;28;20562;-34
2023/05/15 10:47:57;;;;;;;10.90;9.07;;;18.40;98.60;;;;;;5081339;28;20034;-35
2023/05/15 10:50:22;;;;;;;9.68;8.60;;;18.30;97.60;;;;;;5080368;28;20050;-33
2023/05/15 10:52:51;;;;;;;10.40;8.52;;;18.10;98.00;;;;;;5080543;28;20735;-33
2023/05/15 10:55:17;;;;;;;11.60;7.97;;;18.00;97.30;;;;;;5081078;28;20042;-35
2023/05/15 10:57:46;;;;;;;8.70;7.07;;;17.90;98.00;;;;;;5080410;28;20019;-34
2023/05/15 11:00:21;;;;;;;9.48;8.55;;;17.90;98.50;;;;;;5081196;28;20040;-38
2023/05/15 11:02:47;;;;;;;10.95;8.80;;;18.00;97.80;;;;;;5081097;28;20055;-34
2023/05/15 11:05:13;;;;;;;9.15;8.25;;;17.90;97.70;;;;;;5081039;28;20551;-34
2023/05/15 11:07:41;;;;;;;9.15;7.80;;;17.80;98.30;;;;;;5080767;28;20081;-33
2023/05/15 11:10:27;;;;;;;7.07;6.10;;;17.90;98.80;;;;;;5060944;28;20581;-33
2023/05/15 11:13:01;;;;;;;7.03;6.32;;;18.00;99.20;;;;;;5076963;28;20024;-34
2023/05/15 11:15:39;;;;;;;6.07;5.47;;;18.10;99.30;;;;;;5079701;28;20051;-33
2023/05/15 11:18:06;;;;;;;6.70;6.00;;;18.20;99.50;;;;;;5080538;28;20035;-34
2023/05/15 11:20:33;;;;;;;10.60;9.50;;;18.30;99.60;;;;;;5080911;28;20039;-34
2023/05/15 11:22:59;;;;;;;9.05;8.02;;;18.30;99.50;;;;;;5080880;28;20077;-34
2023/05/15 11:25:30;;;;;;;6.95;6.32;;;18.20;99.80;;;;;;5079346;28;20378;-34
2023/05/15 11:27:55;;;;;;;7.80;7.00;;;18.30;99.90;;;;;;5080030;28;20042;-35
2023/05/15 11:30:23;;;;;;;7.38;6.60;;;18.40;99.90;;;;;;5079343;28;20028;-34
2023/05/15 11:32:58;;;;;;;10.90;8.60;;;18.50;99.90;;;;;;5079908;28;20031;-35
2023/05/15 11:35:31;;;;;;;9.25;8.35;;;18.50;99.90;;;;;;5080714;28;20051;-37
2023/05/15 11:38:00;;;;;;;13.20;11.80;;;18.50;99.90;;;;;;5081484;28;20028;-33
2023/05/15 11:40:32;;;;;;;12.90;11.55;;;18.50;99.80;;;;;;5080283;28;20032;-34
2023/05/15 11:43:25;;;;;;;11.95;10.70;;;18.40;99.90;;;;;;5081461;28;20016;-34
2023/05/15 11:45:55;;;;;;;12.45;11.18;;;18.30;99.90;;;;;;5084689;28;20027;-34
2023/05/15 11:48:22;;;;;;;9.60;8.57;;;18.20;99.90;;;;;;5084128;28;20428;-33
2023/05/15 11:50:48;;;;;;;10.75;9.25;;;18.20;99.90;;;;;;5083988;28;20028;-35
2023/05/15 11:53:15;;;;;;;9.95;9.05;;;18.30;99.90;;;;;;5082792;28;20139;-34
2023/05/15 11:55:42;;;;;;;12.82;11.25;;;18.40;99.90;;;;;;5083480;28;20034;-34
2023/05/15 11:58:16;;;;;;;12.25;10.98;;;18.40;99.90;;;;;;5084625;28;20571;-34
2023/05/15 12:00:44;;;;;;;17.67;15.00;;;18.40;99.90;;;;;;5083525;28;20044;-33
2023/05/15 12:03:31;;;;;;;17.60;15.80;;;18.30;99.90;;;;;;5084256;28;20028;-37
2023/05/15 12:05:57;;;;;;;14.10;11.85;;;18.20;99.90;;;;;;5075497;28;20761;-34
2023/05/15 12:08:22;;;;;;;12.93;11.18;;;18.20;99.90;;;;;;5083478;28;20123;-35
2023/05/15 12:10:49;;;;;;;21.55;18.90;;;18.20;99.90;;;;;;5084565;28;20753;-35
2023/05/15 12:13:16;;;;;;;19.83;14.48;;;18.20;99.90;;;;;;5083997;28;20554;-35
2023/05/15 12:15:44;;;;;;;15.90;13.95;;;18.10;99.90;;;;;;5083662;28;20073;-33
2023/05/15 12:18:10;;;;;;;15.02;12.77;;;18.10;99.90;;;;;;5084412;28;20032;-35
2023/05/15 12:20:39;;;;;;;17.52;14.65;;;18.20;99.90;;;;;;5083689;28;20031;-34
2023/05/15 12:23:06;;;;;;;18.10;15.85;;;18.30;99.90;;;;;;5084543;28;20367;-34
2023/05/15 12:25:35;;;;;;;22.10;18.40;;;18.30;99.90;;;;;;5083895;28;20028;-33
2023/05/15 12:28:02;;;;;;;23.27;20.10;;;18.30;99.90;;;;;;5083996;28;20024;-33
2023/05/15 12:30:31;;;;;;;21.60;18.58;;;18.20;99.90;;;;;;5082825;28;20036;-33
2023/05/15 12:33:02;;;;;;;17.75;15.85;;;18.10;99.90;;;;;;5084078;28;20832;-33